createdAt,value
2019-03-13T00:00:37.691Z,66.88
2019-03-13T00:03:03.965Z,66.70
2019-03-13T00:05:29.968Z,66.75
2019-03-13T00:07:55.965Z,66.55
2019-03-13T00:10:22.052Z,66.55
2019-03-13T00:12:48.102Z,66.40
2019-03-13T00:15:14.206Z,66.29
2019-03-13T00:17:40.164Z,66.69
2019-03-13T00:20:08.025Z,67.36
2019-03-13T00:22:34.223Z,67.01
2019-03-13T00:25:00.343Z,67.13
2019-03-13T00:27:26.400Z,67.02
2019-03-13T00:29:52.397Z,66.87
2019-03-13T00:32:18.460Z,67.17
2019-03-13T00:34:44.411Z,67.01
2019-03-13T00:37:10.377Z,67.14
2019-03-13T00:39:36.459Z,67.14
2019-03-13T00:42:02.523Z,67.05
2019-03-13T00:44:28.511Z,66.99
2019-03-13T00:46:54.485Z,67.00
2019-03-13T00:49:20.577Z,66.89
2019-03-13T00:51:46.717Z,66.91
2019-03-13T00:54:12.687Z,67.06
2019-03-13T00:56:38.773Z,67.03
2019-03-13T00:59:04.866Z,66.98
2019-03-13T01:01:49.454Z,67.26
2019-03-13T01:04:23.139Z,67.23
2019-03-13T01:06:51.001Z,66.94
2019-03-13T01:09:16.968Z,67.49
2019-03-13T01:11:43.037Z,68.01
2019-03-13T01:14:09.011Z,67.93
2019-03-13T01:16:35.217Z,68.02
2019-03-13T01:19:01.161Z,67.70
2019-03-13T01:21:27.244Z,67.86
2019-03-13T01:23:53.191Z,68.29
2019-03-13T01:26:19.173Z,68.10
2019-03-13T01:28:45.296Z,67.92
2019-03-13T01:31:25.261Z,67.82
2019-03-13T01:33:52.333Z,67.65
2019-03-13T01:36:18.695Z,68.77
2019-03-13T01:38:44.658Z,68.97
2019-03-13T01:41:10.774Z,68.99
2019-03-13T01:43:40.927Z,68.82
2019-03-13T01:46:07.049Z,68.84
2019-03-13T01:48:33.041Z,69.33
2019-03-13T01:50:59.117Z,69.34
2019-03-13T01:53:25.244Z,69.76
2019-03-13T01:55:51.363Z,69.85
2019-03-13T01:58:17.323Z,69.79
2019-03-13T02:00:43.261Z,69.64
2019-03-13T02:03:09.366Z,70.39
2019-03-13T02:05:35.528Z,71.06
2019-03-13T02:08:01.613Z,71.81
2019-03-13T02:10:29.807Z,71.22
2019-03-13T02:12:55.856Z,71.04
2019-03-13T02:15:24.651Z,70.84
2019-03-13T02:17:50.741Z,70.64
2019-03-13T02:20:16.841Z,70.39
2019-03-13T02:22:43.023Z,70.43
2019-03-13T02:25:10.620Z,69.92
2019-03-13T02:27:36.587Z,70.20
2019-03-13T02:30:05.960Z,69.79
2019-03-13T02:32:32.228Z,69.33
2019-03-13T02:34:58.213Z,68.86
2019-03-13T02:37:24.139Z,68.64
2019-03-13T02:39:50.116Z,67.88
2019-03-13T02:42:18.456Z,67.63
2019-03-13T02:44:44.470Z,67.33
2019-03-13T02:47:11.630Z,67.30
2019-03-13T02:49:37.607Z,67.02
2019-03-13T02:52:04.738Z,66.84
2019-03-13T02:54:30.840Z,66.78
2019-03-13T02:56:56.942Z,66.85
2019-03-13T02:59:22.987Z,66.71
2019-03-13T03:01:50.850Z,66.77
2019-03-13T03:04:16.858Z,66.24
2019-03-13T03:06:42.872Z,66.18
2019-03-13T03:09:08.967Z,66.21
2019-03-13T03:11:35.117Z,66.20
2019-03-13T03:14:01.057Z,65.56
2019-03-13T03:16:27.045Z,65.71
2019-03-13T03:18:53.039Z,65.50
2019-03-13T03:21:19.008Z,64.78
2019-03-13T03:23:45.700Z,64.66
2019-03-13T03:26:11.731Z,64.36
2019-03-13T03:28:37.677Z,64.53
2019-03-13T03:31:03.697Z,64.12
2019-03-13T03:33:38.501Z,63.85
2019-03-13T03:36:04.480Z,63.81
2019-03-13T03:38:30.518Z,63.65
2019-03-13T03:40:56.484Z,62.95
2019-03-13T03:43:38.824Z,62.61
2019-03-13T03:45:52.168Z,62.64
2019-03-13T03:48:18.103Z,62.19
2019-03-13T03:50:44.148Z,61.00
2019-03-13T03:53:10.099Z,60.78
2019-03-13T03:55:36.098Z,60.78
2019-03-13T03:58:02.021Z,60.91
2019-03-13T04:00:28.050Z,60.94
2019-03-13T04:02:53.987Z,60.99
2019-03-13T04:05:19.953Z,60.82
2019-03-13T04:07:45.988Z,60.76
2019-03-13T04:10:14.175Z,59.77
2019-03-13T04:12:40.167Z,59.76
2019-03-13T04:15:15.589Z,60.23
2019-03-13T04:17:41.719Z,60.56
2019-03-13T04:20:15.004Z,60.78
2019-03-13T04:22:40.894Z,60.44
2019-03-13T04:25:25.978Z,60.43
2019-03-13T04:27:52.010Z,59.77
2019-03-13T04:30:17.936Z,58.53
2019-03-13T04:32:43.949Z,59.10
2019-03-13T04:35:12.971Z,58.12
2019-03-13T04:37:39.038Z,58.49
2019-03-13T04:40:07.331Z,58.70
2019-03-13T04:42:33.357Z,59.08
2019-03-13T04:44:59.291Z,59.69
2019-03-13T04:47:25.324Z,59.77
2019-03-13T04:49:51.295Z,58.99
2019-03-13T04:52:17.318Z,58.79
2019-03-13T04:54:43.399Z,58.85
2019-03-13T04:57:09.419Z,58.88
2019-03-13T04:59:35.345Z,59.23
2019-03-13T05:02:01.396Z,58.87
2019-03-13T05:04:27.431Z,57.92
2019-03-13T05:06:53.361Z,58.75
2019-03-13T05:09:19.300Z,57.73
2019-03-13T05:11:45.315Z,57.18
2019-03-13T05:14:11.279Z,57.78
2019-03-13T05:16:38.565Z,56.96
2019-03-13T05:19:04.608Z,57.52
2019-03-13T05:21:30.520Z,57.23
2019-03-13T05:23:56.546Z,56.39
2019-03-13T05:26:22.501Z,56.04
2019-03-13T05:28:48.415Z,56.54
2019-03-13T05:31:14.333Z,55.99
2019-03-13T05:33:40.249Z,56.59
2019-03-13T05:36:06.181Z,56.13
2019-03-13T05:38:32.097Z,55.83
2019-03-13T05:40:58.096Z,55.81
2019-03-13T05:43:24.045Z,55.54
2019-03-13T05:45:49.966Z,54.65
2019-03-13T05:48:15.904Z,54.60
2019-03-13T05:50:41.819Z,55.05
2019-03-13T05:53:07.744Z,54.66
2019-03-13T05:55:33.669Z,55.06
2019-03-13T05:57:59.605Z,54.09
2019-03-13T06:00:27.589Z,53.91
2019-03-13T06:02:53.513Z,54.02
2019-03-13T06:05:22.698Z,54.58
2019-03-13T06:07:48.760Z,54.97
2019-03-13T06:10:17.240Z,54.81
2019-03-13T06:12:43.224Z,54.89
2019-03-13T06:15:11.756Z,54.44
2019-03-13T06:17:37.841Z,53.52
2019-03-13T06:20:10.374Z,53.77
2019-03-13T06:22:35.174Z,53.63
2019-03-13T06:25:01.205Z,53.78
2019-03-13T06:27:27.215Z,53.81
2019-03-13T06:29:53.112Z,53.73
2019-03-13T06:32:19.269Z,53.75
2019-03-13T06:34:45.177Z,53.78
2019-03-13T06:37:11.137Z,53.89
2019-03-13T06:39:37.289Z,53.89
2019-03-13T06:42:03.223Z,53.45
2019-03-13T06:44:29.165Z,53.67
2019-03-13T06:46:55.087Z,52.94
2019-03-13T06:49:21.035Z,53.68
2019-03-13T06:51:47.098Z,53.74
2019-03-13T06:54:13.144Z,53.10
2019-03-13T06:56:39.113Z,52.50
2019-03-13T06:59:09.747Z,52.27
2019-03-13T07:01:37.603Z,51.50
2019-03-13T07:04:08.245Z,51.90
2019-03-13T07:06:38.872Z,51.94
2019-03-13T07:09:09.431Z,51.99
2019-03-13T07:11:40.342Z,52.07
2019-03-13T07:14:17.234Z,52.04
2019-03-13T07:16:45.148Z,52.05
2019-03-13T07:19:29.548Z,51.83
2019-03-13T07:22:13.932Z,51.17
2019-03-13T07:24:44.524Z,51.78
2019-03-13T07:27:12.366Z,52.06
2019-03-13T07:29:56.979Z,52.13
2019-03-13T07:32:30.771Z,52.31
2019-03-13T07:35:04.542Z,52.14
2019-03-13T07:37:32.400Z,52.40
2019-03-13T07:40:00.883Z,52.24
2019-03-13T07:42:47.020Z,51.74
2019-03-13T07:45:14.863Z,50.38
2019-03-13T07:47:45.743Z,51.07
2019-03-13T07:50:19.450Z,51.49
2019-03-13T07:52:52.375Z,50.92
2019-03-13T07:55:37.093Z,50.71
2019-03-13T07:58:05.173Z,51.16
2019-03-13T08:00:45.051Z,51.10
2019-03-13T08:03:18.755Z,51.01
2019-03-13T08:06:03.204Z,51.07
2019-03-13T08:08:33.788Z,50.54
2019-03-13T08:11:16.632Z,50.10
2019-03-13T08:14:01.020Z,50.22
2019-03-13T08:16:28.854Z,50.32
2019-03-13T08:19:08.828Z,50.40
2019-03-13T08:21:53.285Z,49.89
2019-03-13T08:24:23.864Z,50.11
2019-03-13T08:26:57.669Z,50.21
2019-03-13T08:29:37.975Z,50.11
2019-03-13T08:32:22.625Z,50.25
2019-03-13T08:34:50.547Z,50.01
2019-03-13T08:37:18.398Z,49.87
2019-03-13T08:40:02.795Z,49.57
2019-03-13T08:42:30.618Z,49.25
2019-03-13T08:45:15.044Z,49.43
2019-03-13T08:47:54.740Z,48.98
2019-03-13T08:50:22.703Z,49.50
2019-03-13T08:53:07.160Z,48.62
2019-03-13T08:55:35.310Z,49.13
2019-03-13T08:58:03.153Z,49.13
2019-03-13T09:00:33.735Z,49.17
2019-03-13T09:03:01.589Z,49.22
2019-03-13T09:05:29.669Z,49.31
2019-03-13T09:07:57.526Z,49.67
2019-03-13T09:10:34.166Z,49.83
2019-03-13T09:13:02.193Z,49.53
2019-03-13T09:15:36.015Z,50.24
2019-03-13T09:18:09.677Z,52.00
2019-03-13T09:20:37.628Z,53.92
2019-03-13T09:23:20.545Z,56.54
2019-03-13T09:25:54.177Z,58.99
2019-03-13T09:31:09.944Z,61.30
2019-03-13T09:33:40.804Z,62.94
2019-03-13T09:36:11.471Z,63.09
2019-03-13T09:38:45.897Z,66.08
2019-03-13T09:41:19.517Z,65.07
2019-03-13T09:43:59.744Z,65.99
2019-03-13T09:46:28.951Z,67.30
2019-03-13T09:48:59.593Z,67.11
2019-03-13T09:51:30.492Z,68.06
2019-03-13T09:54:01.057Z,68.36
2019-03-13T09:56:29.175Z,70.33
2019-03-13T09:59:04.659Z,69.79
2019-03-13T10:01:38.529Z,71.21
2019-03-13T10:04:12.174Z,71.73
2019-03-13T10:06:58.098Z,71.74
2019-03-13T10:09:29.183Z,71.90
2019-03-13T10:12:13.746Z,71.87
2019-03-13T10:14:41.575Z,71.73
2019-03-13T10:17:12.181Z,71.17
2019-03-13T10:19:43.149Z,70.85
2019-03-13T10:22:15.828Z,71.02
2019-03-13T10:24:43.670Z,70.66
2019-03-13T10:27:11.722Z,71.73
2019-03-13T10:29:42.834Z,71.78
2019-03-13T10:32:13.647Z,71.27
2019-03-13T10:34:44.416Z,70.76
2019-03-13T10:37:12.458Z,70.30
2019-03-13T10:39:40.418Z,69.80
2019-03-13T10:42:11.260Z,69.41
2019-03-13T10:44:41.860Z,69.03
2019-03-13T10:47:26.644Z,67.93
2019-03-13T10:49:54.584Z,67.74
2019-03-13T10:52:28.298Z,66.99
2019-03-13T10:54:56.169Z,66.23
2019-03-13T10:57:40.596Z,65.98
2019-03-13T11:00:30.203Z,65.07
2019-03-13T11:03:06.934Z,64.40
2019-03-13T11:05:34.790Z,63.65
2019-03-13T11:08:11.889Z,60.78
2019-03-13T11:10:45.730Z,60.67
2019-03-13T11:13:13.591Z,60.48
2019-03-13T11:15:53.674Z,60.64
2019-03-13T11:18:39.699Z,60.88
2019-03-13T11:21:07.571Z,61.05
2019-03-13T11:23:37.350Z,60.77
2019-03-13T11:26:09.907Z,61.13
2019-03-13T11:28:46.674Z,61.39
2019-03-13T11:31:17.310Z,61.81
2019-03-13T11:33:46.772Z,60.93
2019-03-13T11:36:20.435Z,59.27
2019-03-13T11:39:05.153Z,57.89
2019-03-13T11:41:33.121Z,57.82
2019-03-13T11:44:07.549Z,58.07
2019-03-13T11:46:52.356Z,58.18
2019-03-13T11:49:20.321Z,58.10
2019-03-13T11:51:51.019Z,57.82
2019-03-13T11:54:27.782Z,55.15
2019-03-13T11:57:14.078Z,56.19
2019-03-13T11:59:42.059Z,56.53
2019-03-13T12:02:22.075Z,56.96
2019-03-13T12:05:06.754Z,58.26
2019-03-13T12:07:34.807Z,58.97
2019-03-13T12:10:11.814Z,59.93
2019-03-13T12:12:48.541Z,60.11
2019-03-13T12:15:16.560Z,60.40
2019-03-13T12:18:02.436Z,60.37
2019-03-13T12:20:33.301Z,60.31
2019-03-13T12:23:10.259Z,60.51
2019-03-13T12:25:41.046Z,60.34
2019-03-13T12:28:14.893Z,60.53
2019-03-13T12:30:43.137Z,60.11
2019-03-13T12:33:26.178Z,59.90
2019-03-13T12:36:10.648Z,60.03
2019-03-13T12:38:41.398Z,59.93
2019-03-13T12:41:09.274Z,59.42
2019-03-13T12:43:53.801Z,59.28
2019-03-13T12:46:27.432Z,59.04
2019-03-13T12:49:02.592Z,57.95
2019-03-13T12:51:39.602Z,57.78
2019-03-13T12:54:07.598Z,56.30
2019-03-13T12:56:41.743Z,56.59
2019-03-13T12:59:12.816Z,57.69
2019-03-13T13:01:43.561Z,57.48
2019-03-13T13:04:17.426Z,57.79
2019-03-13T13:06:57.291Z,56.22
2019-03-13T13:09:43.207Z,55.37
2019-03-13T13:12:11.276Z,55.30
2019-03-13T13:14:39.203Z,54.90
2019-03-13T13:17:19.093Z,53.94
2019-03-13T13:19:45.022Z,54.75
2019-03-13T13:22:11.075Z,53.79
2019-03-13T13:24:37.215Z,54.08
2019-03-13T13:27:03.470Z,54.32
2019-03-13T13:29:29.659Z,54.19
2019-03-13T13:31:55.815Z,53.23
2019-03-13T13:34:22.056Z,53.47
2019-03-13T13:36:48.303Z,53.41
2019-03-13T13:39:14.424Z,53.94
2019-03-13T13:41:40.665Z,53.35
2019-03-13T13:44:10.053Z,53.19
2019-03-13T13:46:36.082Z,52.59
2019-03-13T13:49:02.095Z,53.01
2019-03-13T13:51:28.375Z,52.40
2019-03-13T13:53:55.958Z,52.85
2019-03-13T13:56:22.336Z,52.59
2019-03-13T13:58:48.509Z,51.91
2019-03-13T14:01:14.715Z,51.63
2019-03-13T14:03:40.914Z,52.05
2019-03-13T14:06:07.193Z,51.16
2019-03-13T14:08:33.478Z,51.13
2019-03-13T14:10:59.737Z,51.46
2019-03-13T14:13:25.833Z,51.00
2019-03-13T14:15:52.014Z,51.39
2019-03-13T14:18:18.281Z,51.69
2019-03-13T14:20:44.380Z,51.72
2019-03-13T14:23:13.307Z,51.15
2019-03-13T14:25:39.637Z,51.00
2019-03-13T14:28:05.673Z,51.34
2019-03-13T14:30:31.762Z,51.31
2019-03-13T14:32:57.917Z,51.34
2019-03-13T14:35:23.860Z,51.03
2019-03-13T14:37:49.899Z,51.15
2019-03-13T14:40:22.391Z,51.15
2019-03-13T14:43:24.254Z,51.24
2019-03-13T14:45:50.485Z,51.26
2019-03-13T14:48:16.668Z,51.43
2019-03-13T14:50:42.830Z,51.18
2019-03-13T14:53:09.140Z,51.32
2019-03-13T14:55:35.315Z,51.47
2019-03-13T14:58:01.615Z,51.51
2019-03-13T15:00:27.941Z,51.53
2019-03-13T15:02:54.265Z,51.40
2019-03-13T15:05:22.538Z,51.53
2019-03-13T15:07:48.816Z,51.48
2019-03-13T15:10:18.709Z,51.60
2019-03-13T15:12:45.165Z,52.08
2019-03-13T15:15:15.574Z,51.93
2019-03-13T15:17:41.644Z,51.94
2019-03-13T15:20:11.196Z,52.19
2019-03-13T15:22:37.489Z,52.33
2019-03-13T15:25:05.451Z,52.19
2019-03-13T15:27:31.753Z,52.60
2019-03-13T15:29:58.055Z,52.27
2019-03-13T15:32:25.577Z,52.18
2019-03-13T15:34:51.935Z,52.24
2019-03-13T15:37:18.316Z,52.37
2019-03-13T15:39:47.636Z,52.13
2019-03-13T15:42:13.620Z,52.45
2019-03-13T15:44:39.917Z,52.75
2019-03-13T15:47:06.171Z,52.97
2019-03-13T15:49:32.482Z,53.09
2019-03-13T15:51:58.775Z,53.21
2019-03-13T15:54:25.055Z,53.16
2019-03-13T15:57:03.638Z,53.64
2019-03-13T16:20:49.374Z,53.77
2019-03-13T16:23:17.494Z,53.90
2019-03-13T16:25:43.678Z,54.05
2019-03-13T16:28:09.919Z,54.38
2019-03-13T16:30:58.162Z,54.37
2019-03-13T16:33:24.457Z,54.53
2019-03-13T16:35:54.738Z,54.80
2019-03-13T16:38:20.872Z,54.93
2019-03-13T16:40:47.178Z,55.19
2019-03-13T16:43:13.447Z,55.43
2019-03-13T16:45:39.749Z,55.48
2019-03-13T16:48:06.132Z,55.53
2019-03-13T16:50:33.812Z,55.54
2019-03-13T16:52:59.997Z,55.55
2019-03-13T16:55:26.382Z,55.67
2019-03-13T16:57:52.670Z,55.93
2019-03-13T17:00:25.785Z,56.05
2019-03-13T17:02:52.031Z,56.33
2019-03-13T17:05:18.405Z,56.73
2019-03-13T17:07:44.740Z,56.93
2019-03-13T17:10:13.671Z,57.18
2019-03-13T17:12:39.956Z,57.36
2019-03-13T17:15:12.694Z,57.38
2019-03-13T17:17:41.536Z,57.42
2019-03-13T17:20:11.497Z,57.54
2019-03-13T17:22:39.581Z,57.64
2019-03-13T17:25:09.293Z,57.70
2019-03-13T17:27:40.891Z,58.30
2019-03-13T17:30:16.241Z,58.59
2019-03-13T17:32:42.562Z,58.29
2019-03-13T17:35:08.914Z,58.30
2019-03-13T17:37:35.361Z,58.38
2019-03-13T17:40:01.758Z,58.47
2019-03-13T17:42:28.121Z,58.67
2019-03-13T17:44:54.347Z,58.87
2019-03-13T17:47:20.632Z,59.27
2019-03-13T17:49:47.004Z,59.63
2019-03-13T17:52:23.613Z,59.85
2019-03-13T17:54:49.933Z,60.04
2019-03-13T17:57:18.337Z,60.09
2019-03-13T17:59:47.970Z,60.13
2019-03-13T18:02:14.304Z,60.19
2019-03-13T18:04:41.117Z,60.11
2019-03-13T18:07:10.256Z,60.20
2019-03-13T18:09:38.319Z,60.76
2019-03-13T18:12:04.656Z,60.96
2019-03-13T18:14:32.845Z,61.13
2019-03-13T18:17:01.030Z,61.36
2019-03-13T18:19:27.278Z,61.72
2019-03-13T18:21:56.815Z,62.29
2019-03-13T18:24:35.816Z,62.76
2019-03-13T18:26:56.394Z,62.66
2019-03-13T18:29:24.478Z,62.39
2019-03-13T18:31:50.729Z,62.45
2019-03-13T18:34:19.198Z,62.39
2019-03-13T18:36:48.687Z,62.41
2019-03-13T18:39:14.909Z,62.36
2019-03-13T18:41:43.102Z,62.44
2019-03-13T18:44:09.403Z,62.38
2019-03-13T18:46:35.724Z,62.51
2019-03-13T18:49:02.101Z,62.67
2019-03-13T18:51:28.450Z,62.70
2019-03-13T18:53:54.716Z,62.94
2019-03-13T18:56:21.169Z,62.99
2019-03-13T18:58:47.527Z,63.07
2019-03-13T19:01:13.790Z,63.27
2019-03-13T19:03:42.636Z,63.48
2019-03-13T19:06:08.988Z,63.55
2019-03-13T19:08:42.589Z,63.77
2019-03-13T19:20:12.333Z,63.72
2019-03-13T19:22:38.867Z,63.73
2019-03-13T19:25:07.280Z,64.00
2019-03-13T19:27:35.513Z,64.64
2019-03-13T19:31:12.011Z,64.98
2019-03-13T19:34:06.857Z,65.01
2019-03-13T19:36:24.160Z,64.61
2019-03-13T19:52:57.847Z,64.90
2019-03-13T19:55:24.779Z,64.91
2019-03-13T19:57:51.389Z,64.84
2019-03-13T20:00:21.362Z,64.94
2019-03-13T20:02:59.853Z,64.96
2019-03-13T20:05:22.070Z,65.09
2019-03-13T20:07:59.338Z,65.46
2019-03-13T20:10:26.959Z,65.81
2019-03-13T20:15:03.561Z,66.14
2019-03-13T20:15:55.110Z,65.97
2019-03-13T20:18:21.351Z,65.77
2019-03-13T20:20:47.683Z,66.08
2019-03-13T20:23:16.180Z,66.20
2019-03-13T20:25:42.444Z,66.42
2019-03-13T20:28:08.760Z,66.34
2019-03-13T20:58:11.214Z,66.98
2019-03-13T21:00:37.458Z,67.09
2019-03-13T21:03:03.866Z,67.09
2019-03-13T21:05:30.119Z,67.17
2019-03-13T21:07:56.213Z,67.37
2019-03-13T21:10:25.193Z,67.37
2019-03-13T21:13:03.833Z,67.44
2019-03-13T21:15:30.230Z,67.48
2019-03-13T21:20:21.436Z,67.23
2019-03-13T21:22:47.898Z,67.06
2019-03-13T21:25:24.818Z,67.04
2019-03-13T21:28:59.736Z,67.16
2019-03-13T21:31:26.278Z,67.25
2019-03-13T21:33:53.092Z,66.98
2019-03-13T21:36:21.803Z,67.00
2019-03-13T21:38:48.255Z,67.13
2019-03-13T21:41:39.736Z,67.45
2019-03-13T21:44:12.304Z,67.72
2019-03-13T21:46:36.075Z,67.79
2019-03-13T21:49:02.498Z,67.87
2019-03-13T21:51:29.003Z,67.81
2019-03-13T21:53:55.549Z,67.86
2019-03-13T21:56:21.728Z,67.84
2019-03-13T21:58:48.314Z,67.89
2019-03-13T22:01:20.085Z,68.12
2019-03-13T22:03:43.036Z,68.50
2019-03-13T22:06:09.415Z,68.44
2019-03-13T22:08:42.564Z,68.75
2019-03-13T22:11:05.937Z,68.81
2019-03-13T22:13:39.327Z,68.53
2019-03-13T22:16:04.267Z,68.65
2019-03-13T22:18:30.193Z,68.63
2019-03-13T22:20:56.108Z,68.67
2019-03-13T22:23:22.038Z,68.76
2019-03-13T22:25:48.496Z,69.19
2019-03-13T22:28:17.512Z,69.53
2019-03-13T22:30:43.821Z,69.26
2019-03-13T22:33:09.764Z,69.13
2019-03-13T22:35:35.683Z,69.17
2019-03-13T22:38:01.773Z,69.05
2019-03-13T22:40:27.791Z,69.56
2019-03-13T22:42:53.717Z,69.44
2019-03-13T22:45:20.329Z,69.26
2019-03-13T22:47:46.352Z,69.15
2019-03-13T22:50:14.178Z,69.10
2019-03-13T22:52:40.127Z,69.03
2019-03-13T22:55:08.324Z,69.28
2019-03-13T22:57:34.233Z,69.28
2019-03-13T23:00:00.391Z,69.65
2019-03-13T23:02:26.607Z,69.65
2019-03-13T23:04:52.533Z,69.54
2019-03-13T23:07:18.469Z,69.73
2019-03-13T23:09:47.254Z,69.78
2019-03-13T23:12:13.210Z,69.95
2019-03-13T23:14:39.131Z,69.72
2019-03-13T23:17:05.188Z,69.96
2019-03-13T23:19:31.142Z,69.97
2019-03-13T23:21:57.083Z,70.09
2019-03-13T23:24:23.007Z,70.53
2019-03-13T23:26:50.724Z,70.42
2019-03-13T23:29:16.668Z,70.38
2019-03-13T23:31:43.003Z,70.47
2019-03-13T23:34:08.970Z,71.12
2019-03-13T23:36:34.875Z,70.88
2019-03-13T23:39:00.827Z,71.07
2019-03-13T23:41:32.124Z,70.89
2019-03-13T23:43:58.264Z,70.78
2019-03-13T23:46:24.297Z,71.05
2019-03-13T23:48:50.231Z,70.96
2019-03-13T23:51:16.153Z,71.18
2019-03-13T23:53:43.389Z,71.05
2019-03-13T23:56:09.335Z,71.06
2019-03-13T23:58:35.310Z,71.42
